createdAt,value
2022-10-07T00:00:07.034Z,974.73
2022-10-07T00:01:07.078Z,974.72
2022-10-07T00:02:07.010Z,974.69
2022-10-07T00:03:06.896Z,974.74
2022-10-07T00:04:07.037Z,974.71
2022-10-07T00:05:06.815Z,974.69
2022-10-07T00:06:06.771Z,974.72
2022-10-07T00:07:06.726Z,974.68
2022-10-07T00:08:06.683Z,974.71
2022-10-07T00:09:06.643Z,974.74
2022-10-07T00:10:06.613Z,974.73
2022-10-07T00:11:06.553Z,974.72
2022-10-07T00:12:06.511Z,974.72
2022-10-07T00:13:06.471Z,974.73
2022-10-07T00:14:06.423Z,974.73
2022-10-07T00:15:06.377Z,974.71
2022-10-07T00:16:06.373Z,974.68
2022-10-07T00:17:06.295Z,974.68
2022-10-07T00:18:06.259Z,974.73
2022-10-07T00:19:06.215Z,974.68
2022-10-07T00:20:06.170Z,974.68
2022-10-07T00:21:06.134Z,974.70
2022-10-07T00:22:06.100Z,974.68
2022-10-07T00:23:06.043Z,974.63
2022-10-07T00:24:05.998Z,974.67
2022-10-07T00:25:05.956Z,974.72
2022-10-07T00:26:05.911Z,974.72
2022-10-07T00:27:05.865Z,974.74
2022-10-07T00:28:05.919Z,974.76
2022-10-07T00:29:05.782Z,974.75
2022-10-07T00:30:05.742Z,974.73
2022-10-07T00:31:05.768Z,974.75
2022-10-07T00:32:05.834Z,974.74
2022-10-07T00:33:05.612Z,974.73
2022-10-07T00:34:05.581Z,974.73
2022-10-07T00:35:05.532Z,974.69
2022-10-07T00:36:05.488Z,974.67
2022-10-07T00:37:05.446Z,974.66
2022-10-07T00:38:05.423Z,974.69
2022-10-07T00:39:05.370Z,974.70
2022-10-07T00:40:05.318Z,974.69
2022-10-07T00:41:05.276Z,974.68
2022-10-07T00:42:05.237Z,974.68
2022-10-07T00:43:05.260Z,974.66
2022-10-07T00:44:05.166Z,974.66
2022-10-07T00:45:05.111Z,974.68
2022-10-07T00:46:05.120Z,974.64
2022-10-07T00:47:05.018Z,974.66
2022-10-07T00:48:04.980Z,974.68
2022-10-07T00:49:04.935Z,974.62
2022-10-07T00:50:04.912Z,974.59
2022-10-07T00:51:04.862Z,974.62
2022-10-07T00:52:04.808Z,974.59
2022-10-07T00:53:04.802Z,974.64
2022-10-07T00:54:04.723Z,974.62
2022-10-07T00:55:04.845Z,974.64
2022-10-07T00:56:04.648Z,974.61
2022-10-07T00:57:04.600Z,974.59
2022-10-07T00:58:04.556Z,974.59
2022-10-07T00:59:04.514Z,974.54
2022-10-07T01:00:04.471Z,974.58
2022-10-07T01:01:04.492Z,974.56
2022-10-07T01:02:04.433Z,974.54
2022-10-07T01:03:04.351Z,974.54
2022-10-07T01:04:04.298Z,974.56
2022-10-07T01:05:04.258Z,974.52
2022-10-07T01:06:04.215Z,974.49
2022-10-07T01:07:04.193Z,974.48
2022-10-07T01:08:04.131Z,974.48
2022-10-07T01:09:04.090Z,974.48
2022-10-07T01:10:04.043Z,974.49
2022-10-07T01:11:04.009Z,974.46
2022-10-07T01:12:03.969Z,974.47
2022-10-07T01:13:03.935Z,974.45
2022-10-07T01:14:03.878Z,974.47
2022-10-07T01:15:03.835Z,974.44
2022-10-07T01:16:03.789Z,974.48
2022-10-07T01:17:03.829Z,974.42
2022-10-07T01:18:03.705Z,974.41
2022-10-07T01:19:03.688Z,974.43
2022-10-07T01:20:03.620Z,974.42
2022-10-07T01:21:03.584Z,974.37
2022-10-07T01:22:03.539Z,974.40
2022-10-07T01:23:03.498Z,974.39
2022-10-07T01:24:03.455Z,974.36
2022-10-07T01:25:03.438Z,974.32
2022-10-07T01:26:03.371Z,974.30
2022-10-07T01:27:03.331Z,974.29
2022-10-07T01:28:03.311Z,974.29
2022-10-07T01:29:03.242Z,974.29
2022-10-07T01:30:03.204Z,974.25
2022-10-07T01:31:03.383Z,974.22
2022-10-07T01:32:03.116Z,974.21
2022-10-07T01:33:03.078Z,974.26
2022-10-07T01:34:03.032Z,974.21
2022-10-07T01:35:02.988Z,974.18
2022-10-07T01:36:02.946Z,974.18
2022-10-07T01:37:03.109Z,974.18
2022-10-07T01:38:02.861Z,974.19
2022-10-07T01:39:02.820Z,974.19
2022-10-07T01:40:02.784Z,974.15
2022-10-07T01:41:02.738Z,974.17
2022-10-07T01:42:02.696Z,974.13
2022-10-07T01:43:02.663Z,974.11
2022-10-07T01:44:02.610Z,974.13
2022-10-07T01:45:02.566Z,974.10
2022-10-07T01:46:02.577Z,974.08
2022-10-07T01:47:02.492Z,974.10
2022-10-07T01:48:02.439Z,974.10
2022-10-07T01:49:02.400Z,974.08
2022-10-07T01:50:02.356Z,974.08
2022-10-07T01:51:02.317Z,974.07
2022-10-07T01:52:02.325Z,974.08
2022-10-07T01:53:02.233Z,974.01
2022-10-07T01:54:02.188Z,974.02
2022-10-07T01:55:02.151Z,974.04
2022-10-07T01:56:02.102Z,974.07
2022-10-07T01:57:02.064Z,974.09
2022-10-07T01:58:02.064Z,974.05
2022-10-07T01:59:01.982Z,973.99
2022-10-07T02:00:01.933Z,974.02
2022-10-07T02:01:01.934Z,974.00
2022-10-07T02:02:01.846Z,974.02
2022-10-07T02:03:01.812Z,973.98
2022-10-07T02:04:01.843Z,974.03
2022-10-07T02:05:01.732Z,974.02
2022-10-07T02:06:01.686Z,974.00
2022-10-07T02:07:01.646Z,974.01
2022-10-07T02:08:01.600Z,973.98
2022-10-07T02:09:01.563Z,974.00
2022-10-07T02:10:01.562Z,973.97
2022-10-07T02:11:01.477Z,973.94
2022-10-07T02:12:01.434Z,973.93
2022-10-07T02:13:01.394Z,973.93
2022-10-07T02:14:01.351Z,973.97
2022-10-07T02:15:01.314Z,973.96
2022-10-07T02:16:01.368Z,973.95
2022-10-07T02:17:01.223Z,973.94
2022-10-07T02:18:01.181Z,973.93
2022-10-07T02:19:01.143Z,973.92
2022-10-07T02:20:01.096Z,973.93
2022-10-07T02:21:01.061Z,973.92
2022-10-07T02:22:01.033Z,973.90
2022-10-07T02:23:00.977Z,973.89
2022-10-07T02:24:00.934Z,973.86
2022-10-07T02:25:00.892Z,973.84
2022-10-07T02:26:00.847Z,973.89
2022-10-07T02:27:00.810Z,973.84
2022-10-07T02:28:00.823Z,973.83
2022-10-07T02:29:00.722Z,973.84
2022-10-07T02:30:00.686Z,973.84
2022-10-07T02:31:00.712Z,973.81
2022-10-07T02:32:00.597Z,973.81
2022-10-07T02:33:00.558Z,973.78
2022-10-07T02:34:00.534Z,973.76
2022-10-07T02:35:00.474Z,973.80
2022-10-07T02:36:00.430Z,973.74
2022-10-07T02:37:00.395Z,973.72
2022-10-07T02:38:00.356Z,973.72
2022-10-07T02:39:00.339Z,973.76
2022-10-07T02:40:00.283Z,973.71
2022-10-07T02:41:00.226Z,973.71
2022-10-07T02:42:00.186Z,973.69
2022-10-07T02:43:00.142Z,973.71
2022-10-07T02:44:00.104Z,973.68
2022-10-07T02:45:00.075Z,973.67
2022-10-07T02:46:00.116Z,973.64
2022-10-07T02:46:59.977Z,973.63
2022-10-07T02:47:59.935Z,973.65
2022-10-07T02:48:59.889Z,973.67
2022-10-07T02:49:59.852Z,973.66
2022-10-07T02:50:59.809Z,973.63
2022-10-07T02:51:59.803Z,973.62
2022-10-07T02:52:59.729Z,973.62
2022-10-07T02:53:59.683Z,973.60
2022-10-07T02:54:59.647Z,973.58
2022-10-07T02:55:59.604Z,973.58
2022-10-07T02:56:59.563Z,973.62
2022-10-07T02:57:59.855Z,973.54
2022-10-07T02:58:59.480Z,973.59
2022-10-07T02:59:59.436Z,973.55
2022-10-07T03:00:59.398Z,973.53
2022-10-07T03:01:59.436Z,973.53
2022-10-07T03:02:59.309Z,973.56
2022-10-07T03:03:59.344Z,973.55
2022-10-07T03:04:59.230Z,973.56
2022-10-07T03:05:59.186Z,973.54
2022-10-07T03:06:59.143Z,973.56
2022-10-07T03:07:59.105Z,973.57
2022-10-07T03:08:59.059Z,973.57
2022-10-07T03:09:59.036Z,973.56
2022-10-07T03:10:58.980Z,973.58
2022-10-07T03:11:58.969Z,973.59
2022-10-07T03:12:58.899Z,973.54
2022-10-07T03:13:58.853Z,973.57
2022-10-07T03:14:58.814Z,973.58
2022-10-07T03:15:58.843Z,973.57
2022-10-07T03:16:58.731Z,973.58
2022-10-07T03:17:58.693Z,973.57
2022-10-07T03:18:58.646Z,973.56
2022-10-07T03:19:58.607Z,973.53
2022-10-07T03:20:58.561Z,973.56
2022-10-07T03:21:58.540Z,973.54
2022-10-07T03:22:58.479Z,973.54
2022-10-07T03:23:58.442Z,973.55
2022-10-07T03:24:58.396Z,973.57
2022-10-07T03:25:58.360Z,973.58
2022-10-07T03:26:58.316Z,973.55
2022-10-07T03:27:58.338Z,973.54
2022-10-07T03:28:58.228Z,973.55
2022-10-07T03:29:58.191Z,973.53
2022-10-07T03:30:58.178Z,973.55
2022-10-07T03:31:58.105Z,973.53
2022-10-07T03:32:58.088Z,973.52
2022-10-07T03:33:58.028Z,973.51
2022-10-07T03:34:57.981Z,973.53
2022-10-07T03:35:57.942Z,973.49
2022-10-07T03:36:57.898Z,973.53
2022-10-07T03:37:57.858Z,973.51
2022-10-07T03:38:57.832Z,973.52
2022-10-07T03:39:57.772Z,973.52
2022-10-07T03:40:57.730Z,973.53
2022-10-07T03:41:57.695Z,973.50
2022-10-07T03:42:57.650Z,973.47
2022-10-07T03:43:57.627Z,973.48
2022-10-07T03:44:57.569Z,973.51
2022-10-07T03:45:57.528Z,973.45
2022-10-07T03:46:57.525Z,973.43
2022-10-07T03:47:57.438Z,973.40
2022-10-07T03:48:57.400Z,973.40
2022-10-07T03:49:57.384Z,973.40
2022-10-07T03:50:57.316Z,973.39
2022-10-07T03:51:57.276Z,973.34
2022-10-07T03:52:57.233Z,973.36
2022-10-07T03:53:57.191Z,973.34
2022-10-07T03:54:57.153Z,973.36
2022-10-07T03:55:57.123Z,973.36
2022-10-07T03:56:57.067Z,973.32
2022-10-07T03:57:59.537Z,973.34
2022-10-07T03:58:56.987Z,973.33
2022-10-07T03:59:56.943Z,973.33
2022-10-07T04:00:56.899Z,973.34
2022-10-07T04:01:56.931Z,973.34
2022-10-07T04:02:56.878Z,973.35
2022-10-07T04:03:56.779Z,973.34
2022-10-07T04:04:56.737Z,973.37
2022-10-07T04:05:56.695Z,973.37
2022-10-07T04:06:56.658Z,973.35
2022-10-07T04:07:56.627Z,973.39
2022-10-07T04:08:56.571Z,973.34
2022-10-07T04:09:56.528Z,973.37
2022-10-07T04:10:56.486Z,973.38
2022-10-07T04:11:56.446Z,973.37
2022-10-07T04:12:56.404Z,973.36
2022-10-07T04:13:56.376Z,973.35
2022-10-07T04:14:56.342Z,973.39
2022-10-07T04:15:56.353Z,973.34
2022-10-07T04:16:56.239Z,973.36
2022-10-07T04:17:56.201Z,973.34
2022-10-07T04:18:56.154Z,973.33
2022-10-07T04:19:56.117Z,973.32
2022-10-07T04:20:56.084Z,973.33
2022-10-07T04:21:56.046Z,973.30
2022-10-07T04:22:55.989Z,973.33
2022-10-07T04:23:55.948Z,973.33
2022-10-07T04:24:55.914Z,973.29
2022-10-07T04:25:55.861Z,973.29
2022-10-07T04:26:55.821Z,973.24
2022-10-07T04:27:55.824Z,973.28
2022-10-07T04:28:55.738Z,973.27
2022-10-07T04:29:55.697Z,973.25
2022-10-07T04:30:55.653Z,973.22
2022-10-07T04:31:55.724Z,973.23
2022-10-07T04:32:55.570Z,973.23
2022-10-07T04:33:55.557Z,973.24
2022-10-07T04:34:55.488Z,973.19
2022-10-07T04:35:55.457Z,973.20
2022-10-07T04:36:55.407Z,973.22
2022-10-07T04:37:55.371Z,973.18
2022-10-07T04:38:55.322Z,973.18
2022-10-07T04:40:00.592Z,973.18
2022-10-07T04:40:55.239Z,973.16
2022-10-07T04:41:55.202Z,973.15
2022-10-07T04:42:55.161Z,973.17
2022-10-07T04:43:57.887Z,973.19
2022-10-07T04:44:55.072Z,973.16
2022-10-07T04:45:55.210Z,973.15
2022-10-07T04:46:55.059Z,973.13
2022-10-07T04:47:54.947Z,973.16
2022-10-07T04:48:54.904Z,973.13
2022-10-07T04:49:54.865Z,973.15
2022-10-07T04:50:54.827Z,973.10
2022-10-07T04:51:54.807Z,973.11
2022-10-07T04:52:54.740Z,973.11
2022-10-07T04:53:57.060Z,973.07
2022-10-07T04:54:54.660Z,973.12
2022-10-07T04:55:54.627Z,973.12
2022-10-07T04:56:54.571Z,973.10
2022-10-07T04:57:54.548Z,973.09
2022-10-07T04:58:54.491Z,973.11
2022-10-07T04:59:54.453Z,973.11
2022-10-07T05:00:54.422Z,973.10
2022-10-07T05:01:54.407Z,973.07
2022-10-07T05:02:54.324Z,973.09
2022-10-07T05:03:54.309Z,973.07
2022-10-07T05:04:54.250Z,973.06
2022-10-07T05:05:54.199Z,973.08
2022-10-07T05:06:54.157Z,973.04
2022-10-07T05:07:54.118Z,973.09
2022-10-07T05:08:54.083Z,973.06
2022-10-07T05:09:54.063Z,973.02
2022-10-07T05:10:53.996Z,973.06
2022-10-07T05:11:53.954Z,973.06
2022-10-07T05:12:56.050Z,973.02
2022-10-07T05:13:53.869Z,972.98
2022-10-07T05:14:53.829Z,973.03
2022-10-07T05:15:53.850Z,973.04
2022-10-07T05:16:53.745Z,973.03
2022-10-07T05:17:53.708Z,973.01
2022-10-07T05:18:53.659Z,973.04
2022-10-07T05:19:53.620Z,973.04
2022-10-07T05:20:53.580Z,973.03
2022-10-07T05:21:53.547Z,973.04
2022-10-07T05:22:53.711Z,973.01
2022-10-07T05:23:53.469Z,973.02
2022-10-07T05:24:53.414Z,973.03
2022-10-07T05:25:53.375Z,973.05
2022-10-07T05:26:53.329Z,973.08
2022-10-07T05:27:53.293Z,973.08
2022-10-07T05:28:53.246Z,973.09
2022-10-07T05:29:53.219Z,973.06
2022-10-07T05:30:53.167Z,973.06
2022-10-07T05:31:53.170Z,973.07
2022-10-07T05:32:53.077Z,973.04
2022-10-07T05:33:53.040Z,973.06
2022-10-07T05:34:52.999Z,973.05
2022-10-07T05:35:52.968Z,973.11
2022-10-07T05:36:52.911Z,973.11
2022-10-07T05:37:53.029Z,973.15
2022-10-07T05:38:52.834Z,973.14
2022-10-07T05:39:52.900Z,973.14
2022-10-07T05:40:52.749Z,973.13
2022-10-07T05:41:52.722Z,973.15
2022-10-07T05:42:52.666Z,973.12
2022-10-07T05:43:52.628Z,973.13
2022-10-07T05:44:52.586Z,973.14
2022-10-07T05:45:52.643Z,973.10
2022-10-07T05:46:52.500Z,973.10
2022-10-07T05:47:52.478Z,973.13
2022-10-07T05:48:52.414Z,973.13
2022-10-07T05:49:52.376Z,973.13
2022-10-07T05:50:52.329Z,973.13
2022-10-07T05:51:52.292Z,973.10
2022-10-07T05:52:52.248Z,973.14
2022-10-07T05:53:52.226Z,973.10
2022-10-07T05:54:52.164Z,973.12
2022-10-07T05:55:52.127Z,973.09
2022-10-07T05:56:52.083Z,973.09
2022-10-07T05:57:52.038Z,973.09
2022-10-07T05:58:52.000Z,973.10
2022-10-07T05:59:51.984Z,973.10
2022-10-07T06:03:47.160Z,973.05
2022-10-07T06:04:46.790Z,973.06
2022-10-07T06:05:46.779Z,973.08
2022-10-07T06:06:46.774Z,973.07
2022-10-07T06:07:47.536Z,973.06
2022-10-07T06:08:46.613Z,973.09
2022-10-07T06:09:46.696Z,973.04
2022-10-07T06:10:46.525Z,973.03
2022-10-07T06:11:46.759Z,973.06
2022-10-07T06:12:46.720Z,973.06
2022-10-07T06:13:46.403Z,973.07
2022-10-07T06:14:46.560Z,973.10
2022-10-07T06:15:46.312Z,973.06
2022-10-07T06:16:46.362Z,973.05
2022-10-07T06:17:46.482Z,973.07
2022-10-07T06:18:46.347Z,973.10
2022-10-07T06:19:46.141Z,973.06
2022-10-07T06:20:46.281Z,973.07
2022-10-07T06:21:46.057Z,973.06
2022-10-07T06:22:46.350Z,973.08
2022-10-07T06:23:46.078Z,973.09
2022-10-07T06:24:45.946Z,973.09
2022-10-07T06:25:46.121Z,973.08
2022-10-07T06:26:45.882Z,973.04
2022-10-07T06:27:49.728Z,973.02
2022-10-07T06:28:45.968Z,973.03
2022-10-07T06:29:45.919Z,973.03
2022-10-07T06:30:45.723Z,973.05
2022-10-07T06:31:45.955Z,973.10
2022-10-07T06:32:45.602Z,973.06
2022-10-07T06:33:45.560Z,973.09
2022-10-07T06:34:46.171Z,973.07
2022-10-07T06:35:45.525Z,973.07
2022-10-07T06:36:45.562Z,973.06
2022-10-07T06:37:45.792Z,973.05
2022-10-07T06:38:45.352Z,973.07
2022-10-07T06:39:45.309Z,973.08
2022-10-07T06:40:45.598Z,973.07
2022-10-07T06:41:45.225Z,973.08
2022-10-07T06:42:45.402Z,973.11
2022-10-07T06:43:45.150Z,973.14
2022-10-07T06:44:45.118Z,973.16
2022-10-07T06:45:45.278Z,973.13
2022-10-07T06:46:45.047Z,973.16
2022-10-07T06:47:45.461Z,973.15
2022-10-07T06:48:44.937Z,973.14
2022-10-07T06:49:44.958Z,973.17
2022-10-07T06:50:44.851Z,973.16
2022-10-07T06:51:44.954Z,973.18
2022-10-07T06:52:45.023Z,973.16
2022-10-07T06:53:44.975Z,973.15
2022-10-07T06:54:44.691Z,973.11
2022-10-07T06:55:44.647Z,973.08
2022-10-07T06:56:44.628Z,973.11
2022-10-07T06:57:45.953Z,973.07
2022-10-07T06:58:44.517Z,973.09
2022-10-07T06:59:44.612Z,973.09
2022-10-07T07:00:44.722Z,973.07
2022-10-07T07:01:44.639Z,973.09
2022-10-07T07:02:44.638Z,973.09
2022-10-07T07:03:44.314Z,973.06
2022-10-07T07:04:44.568Z,973.05
2022-10-07T07:05:45.805Z,973.08
2022-10-07T07:06:44.187Z,973.06
2022-10-07T07:07:44.505Z,973.06
2022-10-07T07:08:44.415Z,973.10
2022-10-07T07:09:44.368Z,973.11
2022-10-07T07:10:44.025Z,973.10
2022-10-07T07:11:43.987Z,973.14
2022-10-07T07:12:44.307Z,973.10
2022-10-07T07:13:46.020Z,973.15
2022-10-07T07:14:43.859Z,973.16
2022-10-07T07:15:44.107Z,973.15
2022-10-07T07:16:43.832Z,973.12
2022-10-07T07:17:43.961Z,973.15
2022-10-07T07:18:43.713Z,973.17
2022-10-07T07:19:44.136Z,973.13
2022-10-07T07:20:43.615Z,973.15
2022-10-07T07:21:45.533Z,973.13
2022-10-07T07:22:43.531Z,973.15
2022-10-07T07:23:43.750Z,973.15
2022-10-07T07:24:43.453Z,973.14
2022-10-07T07:25:43.565Z,973.16
2022-10-07T07:26:43.368Z,973.15
2022-10-07T07:27:43.909Z,973.16
2022-10-07T07:28:43.339Z,973.14
2022-10-07T07:29:43.383Z,973.15
2022-10-07T07:30:43.272Z,973.16
2022-10-07T07:31:43.607Z,973.16
2022-10-07T07:32:43.121Z,973.13
2022-10-07T07:33:43.085Z,973.12
2022-10-07T07:34:43.159Z,973.14
2022-10-07T07:35:43.246Z,973.13
2022-10-07T07:36:42.958Z,973.17
2022-10-07T07:37:43.376Z,973.18
2022-10-07T07:38:42.879Z,973.15
2022-10-07T07:39:42.841Z,973.17
2022-10-07T07:40:43.084Z,973.13
2022-10-07T07:41:42.763Z,973.12
2022-10-07T07:42:42.865Z,973.09
2022-10-07T07:43:42.953Z,973.12
2022-10-07T07:44:42.637Z,973.13
2022-10-07T07:45:42.615Z,973.10
2022-10-07T07:46:42.704Z,973.12
2022-10-07T07:47:42.685Z,973.17
2022-10-07T07:48:42.717Z,973.13
2022-10-07T07:49:42.471Z,973.15
2022-10-07T07:50:42.389Z,973.16
2022-10-07T07:53:50.331Z,973.14
2022-10-07T07:56:07.048Z,973.14
2022-10-07T07:56:58.970Z,973.14
2022-10-07T07:57:58.946Z,973.11
2022-10-07T07:58:58.883Z,973.12
2022-10-07T07:59:58.869Z,973.11
2022-10-07T08:00:58.819Z,973.12
2022-10-07T08:01:58.760Z,973.16
2022-10-07T08:02:58.715Z,973.09
2022-10-07T08:03:58.675Z,973.13
2022-10-07T08:04:58.658Z,973.12
2022-10-07T08:05:58.593Z,973.14
2022-10-07T08:06:58.552Z,973.16
2022-10-07T08:07:58.512Z,973.16
2022-10-07T08:08:58.470Z,973.16
2022-10-07T08:09:58.436Z,973.15
2022-10-07T08:10:58.415Z,973.13
2022-10-07T08:11:58.353Z,973.18
2022-10-07T08:12:58.317Z,973.16
2022-10-07T08:13:58.271Z,973.16
2022-10-07T08:14:58.228Z,973.14
2022-10-07T08:15:58.272Z,973.15
2022-10-07T08:16:58.175Z,973.13
2022-10-07T08:17:58.109Z,973.15
2022-10-07T08:18:58.071Z,973.14
2022-10-07T08:19:58.038Z,973.15
2022-10-07T08:20:57.993Z,973.15
2022-10-07T08:21:57.950Z,973.15
2022-10-07T08:22:59.088Z,973.11
2022-10-07T08:23:57.871Z,973.11
2022-10-07T08:24:57.831Z,973.09
2022-10-07T08:25:57.793Z,973.11
2022-10-07T08:26:57.758Z,973.12
2022-10-07T08:27:57.809Z,973.07
2022-10-07T08:28:57.719Z,973.07
2022-10-07T08:29:57.635Z,973.06
2022-10-07T08:30:57.632Z,973.07
2022-10-07T08:31:57.552Z,973.04
2022-10-07T08:33:01.161Z,973.02
2022-10-07T08:33:57.476Z,973.02
2022-10-07T08:34:57.452Z,973.04
2022-10-07T08:35:57.401Z,973.08
2022-10-07T08:36:57.374Z,973.05
2022-10-07T08:37:57.318Z,973.04
2022-10-07T08:38:57.274Z,973.01
2022-10-07T08:39:57.239Z,973.03
2022-10-07T08:40:57.211Z,972.99
2022-10-07T08:41:57.158Z,972.99
2022-10-07T08:42:57.118Z,972.95
2022-10-07T08:44:00.765Z,972.97
2022-10-07T08:44:57.038Z,972.97
2022-10-07T08:45:57.061Z,972.94
2022-10-07T08:46:56.971Z,972.93
2022-10-07T08:47:56.924Z,972.92
2022-10-07T08:48:56.883Z,972.91
2022-10-07T08:49:56.844Z,972.92
2022-10-07T08:50:56.801Z,972.87
2022-10-07T08:51:56.763Z,972.84
2022-10-07T08:52:56.731Z,972.86
2022-10-07T08:53:56.682Z,972.86
2022-10-07T08:54:56.642Z,972.88
2022-10-07T08:55:56.605Z,972.80
2022-10-07T08:56:56.563Z,972.83
2022-10-07T08:57:56.527Z,972.78
2022-10-07T08:58:56.586Z,972.83
2022-10-07T08:59:56.561Z,972.84
2022-10-07T09:00:56.404Z,972.81
2022-10-07T09:01:56.367Z,972.84
2022-10-07T09:02:56.422Z,972.78
2022-10-07T09:03:56.305Z,972.82
2022-10-07T09:04:56.291Z,972.82
2022-10-07T09:05:56.211Z,972.74
2022-10-07T09:06:56.171Z,972.78
2022-10-07T09:07:56.129Z,972.84
2022-10-07T09:08:56.094Z,972.82
2022-10-07T09:09:56.057Z,972.89
2022-10-07T09:10:56.038Z,972.81
2022-10-07T09:11:55.977Z,972.89
2022-10-07T09:12:55.940Z,972.85
2022-10-07T09:13:55.906Z,972.82
2022-10-07T09:14:55.872Z,972.87
2022-10-07T09:15:55.873Z,972.81
2022-10-07T09:16:55.971Z,972.77
2022-10-07T09:17:55.753Z,972.79
2022-10-07T09:18:55.718Z,972.87
2022-10-07T09:19:55.682Z,972.75
2022-10-07T09:20:55.644Z,972.76
2022-10-07T09:21:55.609Z,972.76
2022-10-07T09:22:55.599Z,972.78
2022-10-07T09:23:55.538Z,972.72
2022-10-07T09:24:56.178Z,972.65
2022-10-07T09:25:55.466Z,972.66
2022-10-07T09:26:55.432Z,972.63
2022-10-07T09:27:55.393Z,972.66
2022-10-07T09:28:55.393Z,972.66
2022-10-07T09:29:55.322Z,972.62
2022-10-07T09:30:55.362Z,972.59
2022-10-07T09:31:55.247Z,972.58
2022-10-07T09:32:55.217Z,972.57
2022-10-07T09:33:55.178Z,972.56
2022-10-07T09:34:55.151Z,972.54
2022-10-07T09:35:57.553Z,972.55
2022-10-07T09:36:55.063Z,972.55
2022-10-07T09:37:55.044Z,972.56
2022-10-07T09:38:54.989Z,972.54
2022-10-07T09:39:54.963Z,972.50
2022-10-07T09:40:54.916Z,972.51
2022-10-07T09:41:54.877Z,972.51
2022-10-07T09:42:54.839Z,972.51
2022-10-07T09:43:54.813Z,972.52
2022-10-07T09:44:54.767Z,972.39
2022-10-07T09:45:54.732Z,972.41
2022-10-07T09:46:54.742Z,972.42
2022-10-07T09:47:54.648Z,972.37
2022-10-07T09:48:54.613Z,972.36
2022-10-07T09:49:54.588Z,972.36
2022-10-07T09:50:54.548Z,972.39
2022-10-07T09:51:54.490Z,972.40
2022-10-07T09:52:54.461Z,972.50
2022-10-07T09:53:54.413Z,972.47
2022-10-07T09:54:54.385Z,972.44
2022-10-07T09:55:54.359Z,972.48
2022-10-07T09:56:54.300Z,972.45
2022-10-07T09:57:54.267Z,972.37
2022-10-07T09:58:54.231Z,972.43
2022-10-07T09:59:54.192Z,972.43
2022-10-07T10:00:54.169Z,972.45
2022-10-07T10:01:54.198Z,972.43
2022-10-07T10:02:54.147Z,972.40
2022-10-07T10:03:54.040Z,972.43
2022-10-07T10:04:54.005Z,972.40
2022-10-07T10:05:53.973Z,972.39
2022-10-07T10:06:53.931Z,972.40
2022-10-07T10:07:53.919Z,972.40
2022-10-07T10:08:53.858Z,972.39
2022-10-07T10:09:53.820Z,972.45
2022-10-07T10:10:53.783Z,972.36
2022-10-07T10:11:53.786Z,972.37
2022-10-07T10:12:53.716Z,972.38
2022-10-07T10:13:53.698Z,972.31
2022-10-07T10:14:53.641Z,972.32
2022-10-07T10:15:53.697Z,972.36
2022-10-07T10:16:53.563Z,972.32
2022-10-07T10:17:53.525Z,972.26
2022-10-07T10:18:53.495Z,972.25
2022-10-07T10:19:53.472Z,972.25
2022-10-07T10:20:53.418Z,972.25
2022-10-07T10:21:53.379Z,972.29
2022-10-07T10:22:53.343Z,972.20
2022-10-07T10:23:53.309Z,972.17
2022-10-07T10:24:53.272Z,972.31
2022-10-07T10:25:53.256Z,972.31
2022-10-07T10:26:53.205Z,972.29
2022-10-07T10:27:53.162Z,972.30
2022-10-07T10:28:53.123Z,972.29
2022-10-07T10:29:53.090Z,972.30
2022-10-07T10:30:53.115Z,972.24
2022-10-07T10:31:53.044Z,972.29
2022-10-07T10:32:52.983Z,972.36
2022-10-07T10:33:52.949Z,972.34
2022-10-07T10:34:52.921Z,972.31
2022-10-07T10:35:52.896Z,972.25
2022-10-07T10:36:52.850Z,972.24
2022-10-07T10:37:52.830Z,972.22
2022-10-07T10:38:52.785Z,972.23
2022-10-07T10:39:52.744Z,972.22
2022-10-07T10:40:52.725Z,972.19
2022-10-07T10:41:52.684Z,972.19
2022-10-07T10:42:52.654Z,972.20
2022-10-07T10:43:52.648Z,972.19
2022-10-07T10:44:52.594Z,972.13
2022-10-07T10:45:52.553Z,972.15
2022-10-07T10:46:52.568Z,972.19
2022-10-07T10:47:52.498Z,972.11
2022-10-07T10:48:52.464Z,972.16
2022-10-07T10:49:52.445Z,972.13
2022-10-07T10:50:52.400Z,972.19
2022-10-07T10:51:52.374Z,972.11
2022-10-07T10:52:52.344Z,972.12
2022-10-07T10:53:52.315Z,972.07
2022-10-07T10:54:52.291Z,972.05
2022-10-07T10:55:52.248Z,972.03
2022-10-07T10:56:52.217Z,972.05
2022-10-07T10:57:53.988Z,971.96
2022-10-07T10:58:52.159Z,971.96
2022-10-07T10:59:52.130Z,972.03
2022-10-07T11:00:53.490Z,972.02
2022-10-07T11:01:52.120Z,971.91
2022-10-07T11:02:52.061Z,972.01
2022-10-07T11:03:52.010Z,971.97
2022-10-07T11:04:51.979Z,971.99
2022-10-07T11:05:51.947Z,971.99
2022-10-07T11:06:51.931Z,972.02
2022-10-07T11:07:51.888Z,971.98
2022-10-07T11:08:51.860Z,971.92
2022-10-07T11:09:51.829Z,971.92
2022-10-07T11:10:51.807Z,971.94
2022-10-07T11:11:51.788Z,971.87
2022-10-07T11:12:51.737Z,971.86
2022-10-07T11:13:51.710Z,971.79
2022-10-07T11:14:54.627Z,971.82
2022-10-07T11:15:51.749Z,971.84
2022-10-07T11:16:51.620Z,971.84
2022-10-07T11:17:51.619Z,971.80
2022-10-07T11:18:51.566Z,971.82
2022-10-07T11:19:51.538Z,971.76
2022-10-07T11:20:51.500Z,971.72
2022-10-07T11:21:51.473Z,971.74
2022-10-07T11:22:51.444Z,971.71
2022-10-07T11:23:51.426Z,971.73
2022-10-07T11:24:51.393Z,971.71
2022-10-07T11:25:51.350Z,971.68
2022-10-07T11:26:51.323Z,971.67
2022-10-07T11:27:51.294Z,971.63
2022-10-07T11:28:51.273Z,971.62
2022-10-07T11:29:51.255Z,971.58
2022-10-07T11:30:51.244Z,971.57
2022-10-07T11:31:51.178Z,971.58
2022-10-07T11:32:51.146Z,971.53
2022-10-07T11:33:51.115Z,971.55
2022-10-07T11:34:54.396Z,971.48
2022-10-07T11:35:51.139Z,971.44
2022-10-07T11:36:51.050Z,971.47
2022-10-07T11:37:51.018Z,971.50
2022-10-07T11:38:50.967Z,971.45
2022-10-07T11:39:50.936Z,971.46
2022-10-07T11:40:50.902Z,971.45
2022-10-07T11:41:51.052Z,971.43
2022-10-07T11:42:50.850Z,971.39
2022-10-07T11:43:50.817Z,971.43
2022-10-07T11:44:50.787Z,971.36
2022-10-07T11:45:50.758Z,971.36
2022-10-07T11:46:50.767Z,971.35
2022-10-07T11:47:50.721Z,971.32
2022-10-07T11:48:50.675Z,971.33
2022-10-07T11:49:50.641Z,971.34
2022-10-07T11:50:50.610Z,971.30
2022-10-07T11:51:50.582Z,971.26
2022-10-07T11:52:50.786Z,971.24
2022-10-07T11:53:50.539Z,971.26
2022-10-07T11:54:50.498Z,971.22
2022-10-07T11:55:54.396Z,971.13
2022-10-07T11:56:50.444Z,971.12
2022-10-07T11:57:50.404Z,971.17
2022-10-07T11:58:50.399Z,971.11
2022-10-07T11:59:50.347Z,971.09
2022-10-07T12:00:50.343Z,971.09
2022-10-07T12:01:50.305Z,971.13
2022-10-07T12:02:50.738Z,971.08
2022-10-07T12:03:50.228Z,971.05
2022-10-07T12:04:50.225Z,971.04
2022-10-07T12:05:50.168Z,971.04
2022-10-07T12:06:50.138Z,971.02
2022-10-07T12:07:50.114Z,971.01
2022-10-07T12:08:50.108Z,970.98
2022-10-07T12:09:50.073Z,970.96
2022-10-07T12:10:50.047Z,970.99
2022-10-07T12:11:49.995Z,970.96
2022-10-07T12:12:50.140Z,970.89
2022-10-07T12:13:49.930Z,970.88
2022-10-07T12:14:50.095Z,970.85
2022-10-07T12:15:49.867Z,970.84
2022-10-07T12:16:49.845Z,970.86
2022-10-07T12:17:49.813Z,970.80
2022-10-07T12:18:49.787Z,970.77
2022-10-07T12:19:49.751Z,970.80
2022-10-07T12:20:49.737Z,970.81
2022-10-07T12:21:49.698Z,970.75
2022-10-07T12:22:49.677Z,970.75
2022-10-07T12:23:49.636Z,970.73
2022-10-07T12:24:49.629Z,970.76
2022-10-07T12:25:49.574Z,970.76
2022-10-07T12:26:49.553Z,970.76
2022-10-07T12:27:49.545Z,970.72
2022-10-07T12:28:49.484Z,970.72
2022-10-07T12:29:49.458Z,970.69
2022-10-07T12:30:49.426Z,970.70
2022-10-07T12:31:49.465Z,970.65
2022-10-07T12:32:49.563Z,970.66
2022-10-07T12:33:49.371Z,970.64